< Cyclone 198613 1986 Season Cyclone 198615 >
Cyclone 198614 (BILLY-LILA)
General InformationTrack Information on Google MapsDetailed Wind InformationList of All Images || ResourceGoogle EarthGE AnimationAtom FeedGeoJSON
Detalied Best Track (Time Zone = UTC)
Year Month Day Hour Lat. Long. Pressure (hPa) Wind (kt) Class Image Chart
1986 5 4 18 -4.6 89.3 1002 25 2 Image --
1986 5 5 00 -4.7 90.2 1001 27 2 Image --
1986 5 5 06 -4.9 91.2 1000 29 2 Image --
1986 5 5 12 -5.4 91.8 999 33 2 Image --
1986 5 5 18 -6.0 92.2 997 35 3 Image --
1986 5 6 00 -6.4 92.3 993 43 3 Image --
1986 5 6 06 -7.0 92.4 990 47 3 Image --
1986 5 6 12 -7.4 92.7 990 47 3 Image --
1986 5 6 18 -7.7 92.8 990 47 3 Image --
1986 5 7 00 -8.0 93.1 988 51 4 Image --
1986 5 7 06 -8.4 93.4 985 54 4 Image --
1986 5 7 12 -8.6 93.5 984 54 4 Image --
1986 5 7 18 -9.2 93.6 982 58 4 Image --
1986 5 8 00 -9.6 93.4 980 60 4 Image --
1986 5 8 03 -9.8 93.2 979 62 4 Image --
1986 5 8 06 -10.0 92.9 978 62 4 Image --
1986 5 8 09 -10.3 92.8 977 64 5 Image --
1986 5 8 12 -10.8 92.7 976 66 5 Image --
1986 5 8 16 -11.3 92.4 968 76 5 Image --
1986 5 8 18 -11.5 92.3 960 84 5 Image --
1986 5 8 21 -11.8 91.9 960 84 5 Image --
1986 5 9 00 -12.2 91.8 960 84 5 Image --
1986 5 9 06 -12.9 91.1 960 84 5 Image --
1986 5 9 12 -13.6 90.3 960 84 5 Image --
1986 5 9 18 -14.3 89.7 960 84 5 Image --
1986 5 10 00 -14.9 89.5 959 86 5 Image --
1986 5 10 06 -15.8 89.6 958 86 5 Image --
1986 5 10 12 -16.7 89.7 954 91 5 Image --
1986 5 10 18 -17.7 90.0 950 93 5 Image --
1986 5 11 00 -18.5 90.9 954 93 5 Image --
1986 5 11 06 -19.3 92.0 962 82 5 Image --
1986 5 11 12 -20.0 93.1 970 74 5 Image --
1986 5 11 18 -20.4 94.5 976 66 5 Image --
1986 5 12 00 -21.6 96.3 982 58 4 Image --
1986 5 12 06 -22.6 99.0 988 51 4 Image --
1986 5 12 12 -23.3 101.3 991 47 3 Image --
1986 5 12 18 -24.9 103.8 994 41 3 Image --
1986 5 13 00 -26.0 106.7 996 37 3 Image --
1986 5 13 06 -27.3 109.9 998 33 2 Image --
1986 5 13 12 -28.2 113.6 999 33 2 Image --
1986 5 13 18 -29.6 116.2 1000 31 2 Image --
1986 5 14 00 -30.0 118.0 1001 27 2 Image --
1986 5 14 06 -30.6 120.5 1001 27 2 Image --
1986 5 14 12 -31.0 122.9 1002 25 2 Image --
1986 5 14 18 -31.0 125.2 1002 25 2 Image --
1986 5 15 00 -31.6 130.2 1004 23 2 Image --
1986 5 15 03 -31.9 131.8 1004 23 2 Image --
< Cyclone 198613 1986 Season Cyclone 198615 >

Help